Time;durP1;ratioP1;P1;durP2;ratioP2;P2;SDS_P1;SDS_P2;PMS_P1;PMS_P2;Temp;Humidity;BMP_temperature;BMP_pressure;BME280_temperature;BME280_humidity;BME280_pressure;Samples;Min_cycle;Max_cycle;Signal;HPM_P1;HPM_P2
2023/03/13 00:00:58;;;;;;;18.83;4.68;;;;;;;9.98;77.95;100185.78;5068145;28;20111;-68
2023/03/13 00:03:24;;;;;;;24.13;5.30;;;;;;;9.95;78.38;100169.69;5067955;28;20071;-68
2023/03/13 00:05:49;;;;;;;17.75;4.93;;;;;;;9.94;78.49;100176.34;5064884;28;20029;-68
2023/03/13 00:08:14;;;;;;;19.02;5.50;;;;;;;9.95;78.91;100164.13;5054099;28;20499;-68
2023/03/13 00:10:40;;;;;;;22.05;4.97;;;;;;;9.95;78.94;100164.13;5053631;28;20115;-68
2023/03/13 00:13:07;;;;;;;21.08;4.95;;;;;;;9.94;79.23;100156.94;5062272;28;20664;-68
2023/03/13 00:15:32;;;;;;;20.00;5.15;;;;;;;9.94;79.74;100140.28;5070873;28;20025;-68
2023/03/13 00:17:58;;;;;;;16.83;4.93;;;;;;;9.95;80.14;100144.72;5069544;28;20059;-68
2023/03/13 00:20:23;;;;;;;20.30;5.22;;;;;;;9.94;80.60;100136.66;5066745;28;20559;-68
2023/03/13 00:22:48;;;;;;;17.58;4.82;;;;;;;9.94;80.50;100126.44;5065233;28;20032;-68
2023/03/13 00:25:14;;;;;;;27.48;5.60;;;;;;;9.92;80.92;100122.25;5063594;28;20059;-68
2023/03/13 00:27:39;;;;;;;18.85;4.20;;;;;;;9.94;81.27;100120.88;5057113;28;20407;-68
2023/03/13 00:30:05;;;;;;;23.48;5.68;;;;;;;9.96;81.26;100112.28;5070750;28;20089;-68
2023/03/13 00:32:30;;;;;;;19.38;5.03;;;;;;;9.90;81.97;100116.94;5068448;28;20147;-68
2023/03/13 00:34:55;;;;;;;22.77;5.47;;;;;;;9.83;82.72;100111.66;5067929;28;20029;-68
2023/03/13 00:37:21;;;;;;;20.00;4.90;;;;;;;9.83;82.16;100099.75;5070426;28;20099;-68
2023/03/13 00:39:46;;;;;;;21.63;5.30;;;;;;;9.81;82.75;100088.91;5068025;28;20035;-68
2023/03/13 00:42:11;;;;;;;24.42;5.50;;;;;;;9.81;82.97;100086.13;5058209;28;20404;-68
2023/03/13 00:44:37;;;;;;;24.95;5.07;;;;;;;9.85;83.04;100080.88;5061827;28;20576;-68
2023/03/13 00:47:04;;;;;;;18.88;5.15;;;;;;;9.82;83.06;100079.50;5059103;28;20025;-68
2023/03/13 00:49:29;;;;;;;19.60;4.80;;;;;;;9.83;83.62;100078.41;5068729;28;20029;-68
2023/03/13 00:51:55;;;;;;;18.73;4.93;;;;;;;9.81;83.79;100065.91;5064444;28;20811;-68
2023/03/13 00:54:20;;;;;;;22.80;4.80;;;;;;;9.80;83.96;100058.69;5066713;28;20536;-68
2023/03/13 00:56:45;;;;;;;20.67;5.05;;;;;;;9.79;84.60;100048.72;5067642;28;20029;-68
2023/03/13 00:59:10;;;;;;;18.67;4.82;;;;;;;9.79;84.81;100048.72;5068772;28;20545;-68
2023/03/13 01:01:36;;;;;;;21.52;5.22;;;;;;;9.79;84.96;100059.81;5055730;28;20033;-68
2023/03/13 01:04:07;;;;;;;26.05;6.18;;;;;;;9.80;85.08;100037.34;5049733;28;20021;-68
2023/03/13 01:06:35;;;;;;;22.88;4.68;;;;;;;9.78;85.59;100036.78;5060252;28;20479;-68
2023/03/13 01:09:01;;;;;;;20.90;5.18;;;;;;;9.79;85.70;100021.84;5063386;28;20123;-69
2023/03/13 01:11:30;;;;;;;19.40;4.93;;;;;;;9.79;85.95;100023.78;5073110;28;20095;-68
2023/03/13 01:14:01;;;;;;;21.42;5.30;;;;;;;9.79;86.65;100009.91;5070580;28;20352;-68
2023/03/13 01:16:29;;;;;;;16.77;5.25;;;;;;;9.78;86.74;100008.22;5068373;28;20064;-69
2023/03/13 01:18:57;;;;;;;17.00;4.68;;;;;;;9.83;86.67;99999.97;5073939;28;20442;-68
2023/03/13 01:21:24;;;;;;;15.77;5.15;;;;;;;9.82;86.66;100001.03;5066207;28;20028;-68
2023/03/13 01:23:51;;;;;;;14.23;4.47;;;;;;;9.84;86.54;100001.63;5053672;28;20471;-68
2023/03/13 01:26:17;;;;;;;18.77;5.20;;;;;;;9.81;87.35;99989.13;5071015;28;20110;-69
2023/03/13 01:28:43;;;;;;;16.65;4.60;;;;;;;9.80;88.18;99972.78;5071198;28;20530;-68
2023/03/13 01:31:18;;;;;;;17.13;4.55;;;;;;;9.78;88.48;99970.25;5071108;28;20123;-69
2023/03/13 01:33:44;;;;;;;13.95;4.88;;;;;;;9.81;88.24;99972.50;5072853;28;20024;-68
2023/03/13 01:36:10;;;;;;;16.13;4.70;;;;;;;9.84;88.06;99963.66;5071673;28;20043;-68
2023/03/13 01:38:37;;;;;;;17.52;4.55;;;;;;;9.87;88.64;99956.75;5069512;28;20036;-68
2023/03/13 01:41:03;;;;;;;15.15;4.50;;;;;;;9.92;88.63;99972.56;5054141;28;20059;-69
2023/03/13 01:43:30;;;;;;;17.35;4.30;;;;;;;9.92;88.88;99961.47;5059518;28;20036;-68
2023/03/13 01:45:56;;;;;;;17.30;4.35;;;;;;;9.93;89.06;99950.09;5069197;28;20028;-68
2023/03/13 01:48:28;;;;;;;12.73;4.15;;;;;;;9.95;89.13;99947.91;5063641;28;21073;-68
2023/03/13 01:50:55;;;;;;;;;;;;;;;10.05;87.15;99949.88;5066745;28;20033;-66
2023/03/13 01:53:21;;;;;;;12.80;3.90;;;;;;;10.01;89.27;99946.81;5052926;28;20385;-67
2023/03/13 01:55:46;;;;;;;12.32;4.30;;;;;;;10.04;89.19;99937.13;5064117;28;20037;-68
2023/03/13 01:58:12;;;;;;;9.80;4.05;;;;;;;10.02;89.97;99925.44;5059694;28;20116;-67
2023/03/13 02:00:41;;;;;;;14.48;4.47;;;;;;;10.05;89.54;99916.59;5052869;28;20024;-67
2023/03/13 02:03:11;;;;;;;12.30;3.63;;;;;;;10.08;89.29;99910.50;5053566;28;20050;-67
2023/03/13 02:05:38;;;;;;;8.82;3.40;;;;;;;10.11;89.21;99909.97;5053040;28;20044;-67
2023/03/13 02:08:13;;;;;;;9.98;3.30;;;;;;;10.14;89.78;99903.03;5058070;28;20494;-67
2023/03/13 02:10:47;;;;;;;8.90;3.50;;;;;;;10.16;89.80;99892.50;5073395;28;20075;-67
2023/03/13 02:13:14;;;;;;;11.95;3.63;;;;;;;10.18;89.68;99885.59;5066469;28;20035;-68
2023/03/13 02:15:40;;;;;;;9.48;3.25;;;;;;;10.21;89.31;99878.66;5053274;28;20025;-68
2023/03/13 02:18:06;;;;;;;10.32;3.60;;;;;;;10.21;89.83;99879.47;5059128;28;20040;-67
2023/03/13 02:20:31;;;;;;;9.38;3.85;;;;;;;10.24;90.10;99865.06;5052087;28;20029;-69
2023/03/13 02:23:06;;;;;;;8.68;3.30;;;;;;;10.24;90.24;99848.44;5064369;28;20111;-67
2023/03/13 02:25:46;;;;;;;11.43;3.97;;;;;;;10.26;90.31;99832.38;5073455;28;20044;-68
2023/03/13 02:28:23;;;;;;;9.93;3.70;;;;;;;10.28;90.22;99837.66;5072386;28;20035;-67
2023/03/13 02:30:52;;;;;;;11.77;4.15;;;;;;;10.32;90.06;99824.91;5053850;28;20491;-67
2023/03/13 02:33:19;;;;;;;7.22;3.50;;;;;;;10.31;90.54;99840.72;5054614;28;20041;-67
2023/03/13 02:35:46;;;;;;;8.93;4.28;;;;;;;10.32;90.46;99839.59;5069026;28;20487;-67
2023/03/13 02:38:18;;;;;;;8.93;4.20;;;;;;;10.34;91.07;99832.97;5070083;28;20033;-68
2023/03/13 02:40:46;;;;;;;9.85;4.47;;;;;;;10.35;90.99;99827.13;5066499;28;20025;-67
2023/03/13 02:43:24;;;;;;;5.15;3.75;;;;;;;10.37;90.82;99844.31;5053171;28;20036;-67
2023/03/13 02:46:19;;;;;;;8.48;4.07;;;;;;;10.40;90.80;99829.88;5058861;28;20025;-68
2023/03/13 02:48:50;;;;;;;9.27;4.60;;;;;;;10.41;91.15;99839.88;5047351;28;20193;-67
2023/03/13 02:51:29;;;;;;;7.80;5.05;;;;;;;10.43;91.67;99826.56;5063679;28;20039;-67
2023/03/13 02:54:00;;;;;;;7.63;4.50;;;;;;;10.44;91.52;99828.22;5064491;28;20033;-67
2023/03/13 02:56:29;;;;;;;8.18;4.50;;;;;;;10.44;92.03;99822.69;5066849;28;20060;-67
2023/03/13 02:58:54;;;;;;;9.73;5.05;;;;;;;10.46;91.69;99831.56;5066153;28;20020;-67
2023/03/13 03:01:19;;;;;;;8.50;5.10;;;;;;;10.46;91.75;99823.25;5063944;28;20039;-67
2023/03/13 03:03:45;;;;;;;7.25;4.57;;;;;;;10.49;91.77;99825.47;5056099;28;20153;-67
2023/03/13 03:06:10;;;;;;;9.55;4.93;;;;;;;10.51;91.57;99828.78;5052052;28;20033;-67
2023/03/13 03:08:35;;;;;;;7.18;4.68;;;;;;;10.53;92.08;99832.13;5062255;28;20033;-67
2023/03/13 03:11:01;;;;;;;7.40;4.88;;;;;;;10.56;92.61;99833.50;5067309;28;20052;-67
2023/03/13 03:13:26;;;;;;;7.13;5.00;;;;;;;10.55;92.03;99827.13;5057287;28;20044;-67
2023/03/13 03:15:52;;;;;;;9.40;4.88;;;;;;;10.57;91.95;99835.16;5062590;28;20038;-67
2023/03/13 03:18:18;;;;;;;7.15;5.25;;;;;;;10.59;92.31;99832.13;5069017;28;20387;-67
2023/03/13 03:20:43;;;;;;;8.05;4.93;;;;;;;10.60;92.42;99836.53;5071868;28;20029;-67
2023/03/13 03:23:08;;;;;;;7.32;4.65;;;;;;;10.63;92.65;99827.66;5065435;28;20025;-67
2023/03/13 03:25:34;;;;;;;11.23;5.28;;;;;;;10.64;92.71;99823.78;5072231;28;20044;-67
2023/03/13 03:27:59;;;;;;;7.35;4.70;;;;;;;10.65;93.18;99826.28;5063275;28;20025;-68
2023/03/13 03:30:24;;;;;;;7.13;5.28;;;;;;;10.67;92.98;99809.34;5071730;28;20071;-68
2023/03/13 03:32:49;;;;;;;6.65;5.07;;;;;;;10.69;92.96;99812.66;5069355;28;20025;-67
2023/03/13 03:35:15;;;;;;;6.43;5.25;;;;;;;10.68;93.62;99806.28;5070931;28;20082;-67
2023/03/13 03:37:40;;;;;;;6.53;5.22;;;;;;;10.71;93.31;99804.91;5064345;28;20025;-68
2023/03/13 03:40:06;;;;;;;7.70;5.32;;;;;;;10.73;93.61;99802.69;5063492;28;20036;-68
2023/03/13 03:42:32;;;;;;;6.68;5.03;;;;;;;10.73;93.73;99802.69;5063773;28;20064;-67
2023/03/13 03:44:57;;;;;;;8.50;5.63;;;;;;;10.75;93.70;99811.56;5069581;28;20515;-67
2023/03/13 03:47:23;;;;;;;6.93;5.30;;;;;;;10.77;93.65;99803.81;5071104;28;20036;-68
2023/03/13 03:49:48;;;;;;;9.15;6.05;;;;;;;10.78;93.84;99809.06;5068942;28;20028;-67
2023/03/13 03:52:13;;;;;;;7.07;4.53;;;;;;;10.78;93.76;99800.72;5064523;28;20103;-68
2023/03/13 03:54:39;;;;;;;9.63;5.45;;;;;;;10.82;93.59;99812.09;5052765;28;20024;-67
2023/03/13 03:57:04;;;;;;;7.93;5.57;;;;;;;10.81;94.22;99807.69;5071032;28;20036;-67
2023/03/13 03:59:29;;;;;;;6.82;5.80;;;;;;;10.82;94.18;99807.38;5057030;28;20040;-68
2023/03/13 04:01:55;;;;;;;8.20;5.70;;;;;;;10.84;94.37;99797.94;5065193;28;20475;-67
2023/03/13 04:04:20;;;;;;;9.05;5.88;;;;;;;10.84;94.15;99790.44;5057840;28;20622;-67
2023/03/13 04:06:45;;;;;;;7.20;6.40;;;;;;;10.87;94.29;99794.59;5066960;28;20063;-67
2023/03/13 04:09:11;;;;;;;8.23;6.40;;;;;;;10.88;94.26;99794.31;5070328;28;20120;-67
2023/03/13 04:11:36;;;;;;;7.10;5.82;;;;;;;10.89;94.08;99793.22;5068093;28;20223;-67
2023/03/13 04:14:01;;;;;;;7.13;6.38;;;;;;;10.91;94.10;99793.75;5066814;28;20040;-67
2023/03/13 04:16:27;;;;;;;7.75;6.47;;;;;;;10.92;94.27;99783.47;5069824;28;20056;-67
2023/03/13 04:18:52;;;;;;;9.40;6.55;;;;;;;10.94;94.25;99781.28;5054561;28;20028;-67
2023/03/13 04:21:17;;;;;;;9.85;6.05;;;;;;;10.95;94.32;99772.66;5050123;28;20043;-68
2023/03/13 04:23:43;;;;;;;6.80;6.10;;;;;;;10.98;93.62;99760.16;5061758;28;20021;-68
2023/03/13 04:26:08;;;;;;;7.35;6.10;;;;;;;10.99;93.71;99754.31;5061603;28;20032;-68
2023/03/13 04:28:33;;;;;;;8.55;6.75;;;;;;;11.01;93.64;99760.44;5056889;28;20024;-67
2023/03/13 04:31:00;;;;;;;7.20;5.50;;;;;;;11.02;93.13;99753.75;5055305;28;20029;-67
2023/03/13 04:33:25;;;;;;;9.38;6.47;;;;;;;11.06;93.05;99752.06;5055729;28;20041;-67
2023/03/13 04:35:51;;;;;;;7.72;5.65;;;;;;;11.10;93.42;99737.63;5056140;28;20086;-68
2023/03/13 04:38:16;;;;;;;8.48;5.72;;;;;;;11.11;92.90;99740.09;5069958;28;20108;-67
2023/03/13 04:40:42;;;;;;;7.30;5.18;;;;;;;11.12;92.63;99736.22;5070182;28;20077;-67
2023/03/13 04:43:08;;;;;;;6.68;5.15;;;;;;;11.14;92.60;99731.22;5068265;28;20032;-68
2023/03/13 04:45:33;;;;;;;6.93;5.47;;;;;;;11.15;92.43;99732.88;5054002;28;20040;-68
2023/03/13 04:47:59;;;;;;;7.78;4.90;;;;;;;11.17;91.99;99724.28;5061131;28;20025;-67
2023/03/13 04:50:24;;;;;;;8.30;5.05;;;;;;;11.20;92.46;99723.66;5059626;28;20043;-67
2023/03/13 04:52:49;;;;;;;8.00;5.40;;;;;;;11.20;92.45;99723.66;5061004;28;20025;-67
2023/03/13 04:55:15;;;;;;;7.82;4.90;;;;;;;11.22;91.98;99718.69;5065133;28;20066;-67
2023/03/13 04:57:40;;;;;;;6.15;4.53;;;;;;;11.24;91.72;99720.06;5068022;28;20021;-67
2023/03/13 05:00:07;;;;;;;7.30;5.07;;;;;;;11.28;92.08;99723.09;5064624;28;20562;-67
2023/03/13 05:02:32;;;;;;;8.38;5.07;;;;;;;11.31;91.64;99716.97;5066785;28;20041;-67
2023/03/13 05:04:57;;;;;;;7.30;4.82;;;;;;;11.32;91.69;99707.53;5056671;28;20592;-67
2023/03/13 05:07:23;;;;;;;8.45;4.65;;;;;;;11.35;91.25;99714.44;5058381;28;20039;-68
2023/03/13 05:09:48;;;;;;;6.75;4.53;;;;;;;11.34;91.09;99710.84;5058427;28;20036;-66
2023/03/13 05:12:13;;;;;;;7.18;4.50;;;;;;;11.37;91.05;99703.88;5068603;28;20027;-67
2023/03/13 05:14:39;;;;;;;6.07;4.00;;;;;;;11.39;90.78;99713.56;5060532;28;20033;-67
2023/03/13 05:17:04;;;;;;;7.35;4.00;;;;;;;11.39;90.43;99705.25;5065434;28;20031;-67
2023/03/13 05:19:29;;;;;;;7.45;4.38;;;;;;;11.40;90.06;99706.94;5062453;28;20746;-67
2023/03/13 05:21:55;;;;;;;8.90;4.70;;;;;;;11.42;89.90;99696.34;5062222;28;20032;-68
2023/03/13 05:24:20;;;;;;;8.57;4.68;;;;;;;11.42;90.04;99695.50;5056186;28;20100;-68
2023/03/13 05:26:45;;;;;;;7.93;4.40;;;;;;;11.43;89.68;99692.44;5063187;28;20060;-68
2023/03/13 05:29:11;;;;;;;7.22;3.80;;;;;;;11.44;89.42;99694.13;5064768;28;20039;-68
2023/03/13 05:31:36;;;;;;;8.60;4.25;;;;;;;11.45;89.34;99698.56;5051113;28;20037;-68
2023/03/13 05:34:01;;;;;;;8.63;4.13;;;;;;;11.47;89.52;99690.75;5055465;28;20036;-68
2023/03/13 05:36:26;;;;;;;6.68;4.35;;;;;;;11.47;89.32;99689.91;5053059;28;20045;-68
2023/03/13 05:38:52;;;;;;;7.75;4.20;;;;;;;11.47;88.96;99689.91;5065776;28;20107;-68
2023/03/13 05:41:17;;;;;;;9.43;4.10;;;;;;;11.50;88.80;99697.69;5066702;28;20493;-68
2023/03/13 05:43:42;;;;;;;11.10;4.28;;;;;;;11.50;88.46;99692.94;5068454;28;20043;-68
2023/03/13 05:46:08;;;;;;;8.60;4.03;;;;;;;11.52;88.52;99682.41;5070349;28;20020;-68
2023/03/13 05:48:33;;;;;;;8.48;3.83;;;;;;;11.52;87.92;99687.13;5066225;28;20528;-68
2023/03/13 05:50:58;;;;;;;7.60;3.72;;;;;;;11.54;87.75;99688.47;5067710;28;20531;-68
2023/03/13 05:53:23;;;;;;;7.25;3.58;;;;;;;11.54;86.76;99690.44;5068806;28;20194;-68
2023/03/13 05:55:49;;;;;;;9.38;4.13;;;;;;;11.56;86.82;99696.53;5069250;28;20052;-68
2023/03/13 05:58:14;;;;;;;6.65;3.90;;;;;;;11.59;86.46;99706.22;5060487;28;20553;-68
2023/03/13 06:00:39;;;;;;;7.82;3.58;;;;;;;11.61;86.19;99690.13;5064483;28;20032;-68
2023/03/13 06:03:05;;;;;;;7.05;3.75;;;;;;;11.62;86.12;99702.88;5066042;28;20056;-68
2023/03/13 06:05:30;;;;;;;9.55;3.92;;;;;;;11.63;85.98;99704.53;5070440;28;20040;-68
2023/03/13 06:07:55;;;;;;;5.55;3.45;;;;;;;11.64;85.75;99698.72;5063866;28;20024;-68
2023/03/13 06:10:20;;;;;;;7.55;3.47;;;;;;;11.65;85.10;99699.53;5063225;28;20041;-68
2023/03/13 06:12:54;;;;;;;5.18;3.08;;;;;;;11.66;85.17;99710.34;5072460;28;20039;-68
2023/03/13 06:15:19;;;;;;;5.93;3.55;;;;;;;11.68;84.71;99697.00;5072517;28;20387;-68
2023/03/13 06:17:44;;;;;;;6.47;3.38;;;;;;;11.70;84.53;99688.38;5070245;28;20033;-68
2023/03/13 06:20:10;;;;;;;8.50;3.80;;;;;;;11.71;84.30;99684.47;5064593;28;20097;-67
2023/03/13 06:22:35;;;;;;;8.95;3.67;;;;;;;11.71;84.19;99673.34;5069253;28;20040;-67
2023/03/13 06:25:01;;;;;;;8.30;3.60;;;;;;;11.73;84.19;99673.91;5060045;28;20017;-67
2023/03/13 06:27:26;;;;;;;9.38;4.20;;;;;;;11.74;84.15;99679.16;5064097;28;20050;-67
2023/03/13 06:29:51;;;;;;;8.57;3.75;;;;;;;11.73;83.88;99683.06;5068536;28;20068;-67
2023/03/13 06:32:17;;;;;;;11.13;3.65;;;;;;;11.75;83.50;99683.63;5073068;28;20107;-68
2023/03/13 06:34:42;;;;;;;9.77;3.72;;;;;;;11.76;83.47;99690.00;5065975;28;20441;-68
2023/03/13 06:37:07;;;;;;;8.63;3.95;;;;;;;11.77;83.51;99674.97;5065706;28;20064;-68
2023/03/13 06:39:32;;;;;;;7.18;3.63;;;;;;;11.78;83.01;99684.97;5069605;28;20036;-68
2023/03/13 06:41:58;;;;;;;7.78;3.47;;;;;;;11.77;83.33;99678.59;5054304;28;20028;-70
2023/03/13 06:44:23;;;;;;;8.27;3.78;;;;;;;11.78;82.93;99684.97;5063575;28;20029;-68
2023/03/13 06:46:49;;;;;;;11.93;3.42;;;;;;;11.80;83.25;99675.25;5070388;28;20082;-67
2023/03/13 06:49:14;;;;;;;7.15;3.17;;;;;;;11.81;82.62;99678.84;5070436;28;20119;-68
2023/03/13 06:51:39;;;;;;;9.77;3.60;;;;;;;11.82;82.56;99674.94;5067022;28;20025;-68
2023/03/13 06:54:14;;;;;;;12.30;3.97;;;;;;;11.84;82.30;99685.81;5068694;28;20081;-68
2023/03/13 06:56:39;;;;;;;11.68;3.70;;;;;;;11.86;82.59;99680.78;5067672;28;20024;-68
2023/03/13 06:59:05;;;;;;;9.35;4.20;;;;;;;11.88;82.09;99679.38;5061566;28;20032;-67
2023/03/13 07:01:30;;;;;;;9.98;3.65;;;;;;;11.88;81.85;99668.25;5064326;28;20029;-67
2023/03/13 07:03:58;;;;;;;11.30;3.38;;;;;;;11.89;82.04;99671.88;5066186;28;20025;-67
2023/03/13 07:06:23;;;;;;;5.82;3.28;;;;;;;11.90;81.70;99659.63;5065820;28;20078;-67
2023/03/13 07:08:49;;;;;;;7.50;3.33;;;;;;;11.91;82.07;99666.84;5070636;28;20468;-67
2023/03/13 07:11:15;;;;;;;8.10;3.25;;;;;;;11.91;81.52;99678.81;5069072;28;20080;-66
2023/03/13 07:13:40;;;;;;;9.98;4.63;;;;;;;11.95;81.62;99665.97;5068753;28;20016;-67
2023/03/13 07:16:11;;;;;;;8.82;3.85;;;;;;;11.96;81.41;99670.41;5056319;28;20028;-67
2023/03/13 07:18:43;;;;;;;7.18;3.42;;;;;;;11.97;81.40;99672.06;5057888;28;20024;-68
2023/03/13 07:21:09;;;;;;;11.23;3.70;;;;;;;11.98;81.38;99657.03;5053722;28;20017;-67
2023/03/13 07:23:34;;;;;;;9.05;3.88;;;;;;;11.99;81.54;99664.28;5060235;28;20058;-66
2023/03/13 07:26:02;;;;;;;12.55;4.05;;;;;;;12.01;81.18;99666.75;5055429;28;21556;-68
2023/03/13 07:28:29;;;;;;;7.60;3.50;;;;;;;12.02;81.45;99666.47;5068266;28;20036;-68
2023/03/13 07:31:01;;;;;;;11.40;3.65;;;;;;;12.06;81.29;99663.91;5063892;28;20021;-68
2023/03/13 07:33:29;;;;;;;7.55;3.63;;;;;;;12.05;81.53;99662.25;5056067;28;20029;-68
2023/03/13 07:35:55;;;;;;;9.65;4.00;;;;;;;12.09;80.83;99654.16;5068291;28;20040;-68
2023/03/13 07:38:20;;;;;;;8.88;3.38;;;;;;;12.10;81.04;99661.38;5069278;28;20368;-68
2023/03/13 07:40:50;;;;;;;10.13;3.33;;;;;;;12.11;81.00;99674.19;5056653;28;20032;-68
2023/03/13 07:43:16;;;;;;;7.53;3.30;;;;;;;12.14;81.12;99654.13;5064573;28;20029;-67
2023/03/13 07:45:58;;;;;;;12.10;3.95;;;;;;;12.15;81.07;99675.25;5069665;28;20089;-68
2023/03/13 07:48:29;;;;;;;8.80;3.70;;;;;;;12.17;80.80;99684.13;5071642;28;20483;-68
2023/03/13 07:50:56;;;;;;;9.30;3.47;;;;;;;12.15;80.95;99666.91;5069312;28;20025;-67
2023/03/13 07:53:22;;;;;;;10.95;3.25;;;;;;;12.15;81.09;99681.66;5062483;28;20041;-67
2023/03/13 07:55:57;;;;;;;9.73;3.40;;;;;;;12.16;80.90;99660.22;5050688;28;20136;-68
2023/03/13 07:58:24;;;;;;;8.88;3.55;;;;;;;12.16;81.02;99685.25;5068724;28;20036;-67
2023/03/13 08:00:51;;;;;;;8.07;3.53;;;;;;;12.16;80.82;99668.56;5077747;28;20753;-68
2023/03/13 08:03:17;;;;;;;9.90;3.60;;;;;;;12.16;80.88;99674.97;5065325;28;20044;-69
2023/03/13 08:05:45;;;;;;;9.95;3.58;;;;;;;12.18;81.24;99650.47;5060432;28;20025;-68
2023/03/13 08:08:11;;;;;;;12.57;4.00;;;;;;;12.21;80.89;99668.50;5055039;28;20024;-69
2023/03/13 08:10:36;;;;;;;10.15;3.72;;;;;;;12.26;80.64;99657.31;5057106;28;20045;-66
2023/03/13 08:13:01;;;;;;;7.55;3.50;;;;;;;12.29;80.28;99646.44;5052545;28;20059;-65
2023/03/13 08:15:27;;;;;;;9.63;3.17;;;;;;;12.33;80.27;99646.69;5054462;28;20059;-66
2023/03/13 08:17:53;;;;;;;10.57;3.47;;;;;;;12.36;80.21;99656.41;5060364;28;20099;-65
2023/03/13 08:20:18;;;;;;;9.50;3.47;;;;;;;12.37;80.43;99644.16;5061535;28;20028;-67
2023/03/13 08:22:47;;;;;;;9.77;3.63;;;;;;;12.39;79.63;99645.53;5067158;28;20032;-66
2023/03/13 08:25:13;;;;;;;9.63;3.13;;;;;;;12.40;79.92;99647.16;5059395;28;20047;-66
2023/03/13 08:27:38;;;;;;;10.05;3.42;;;;;;;12.42;80.10;99633.81;5061400;28;20419;-66
2023/03/13 08:30:04;;;;;;;10.25;3.55;;;;;;;12.43;79.61;99635.47;5067689;28;20079;-63
2023/03/13 08:32:33;;;;;;;7.30;3.20;;;;;;;12.45;79.19;99644.31;5066953;28;20028;-65
2023/03/13 08:34:59;;;;;;;9.65;3.22;;;;;;;12.48;79.28;99638.19;5065864;28;20043;-65
2023/03/13 08:37:24;;;;;;;8.70;3.03;;;;;;;12.51;78.53;99643.16;5061029;28;20241;-65
2023/03/13 08:39:49;;;;;;;8.05;2.95;;;;;;;12.53;78.98;99624.19;5062656;28;20028;-65
2023/03/13 08:42:14;;;;;;;7.82;3.03;;;;;;;12.56;78.56;99631.13;5061885;28;20119;-66
2023/03/13 08:44:40;;;;;;;9.10;3.55;;;;;;;12.58;78.63;99634.47;5066738;28;20056;-66
2023/03/13 08:47:07;;;;;;;6.20;2.90;;;;;;;12.61;78.67;99649.72;5073514;28;20131;-64
2023/03/13 08:49:32;;;;;;;6.07;2.78;;;;;;;12.65;78.03;99637.69;5060865;28;20033;-64
2023/03/13 08:51:57;;;;;;;4.78;2.55;;;;;;;12.67;78.30;99642.97;5054546;28;20029;-63
2023/03/13 08:54:23;;;;;;;7.13;2.63;;;;;;;12.71;77.95;99632.91;5063890;28;20055;-63
2023/03/13 08:56:48;;;;;;;6.00;2.55;;;;;;;12.72;78.18;99626.22;5054952;28;20387;-62
2023/03/13 08:59:14;;;;;;;7.38;2.72;;;;;;;12.73;78.30;99630.66;5069703;28;20036;-64
2023/03/13 09:01:40;;;;;;;6.15;2.47;;;;;;;12.75;77.87;99625.63;5065753;28;20438;-64
2023/03/13 09:04:08;;;;;;;6.60;2.78;;;;;;;12.80;78.17;99633.91;5070480;28;20036;-60
2023/03/13 09:06:36;;;;;;;6.28;2.22;;;;;;;12.82;77.39;99639.19;5068278;28;20025;-65
2023/03/13 09:09:02;;;;;;;5.63;2.30;;;;;;;12.83;77.88;99635.28;5068820;28;20035;-58
2023/03/13 09:11:28;;;;;;;7.82;3.08;;;;;;;12.96;78.11;99624.22;5069600;28;20395;-59
2023/03/13 09:13:54;;;;;;;10.77;2.80;;;;;;;12.96;77.26;99627.00;5069333;28;20020;-62
2023/03/13 09:16:22;;;;;;;8.50;2.67;;;;;;;13.03;77.13;99624.69;5067666;28;20028;-62
2023/03/13 09:18:51;;;;;;;6.15;2.92;;;;;;;13.06;77.28;99626.06;5064455;28;20102;-65
2023/03/13 09:21:23;;;;;;;5.90;2.92;;;;;;;13.08;77.63;99612.63;5064236;28;20033;-64
2023/03/13 09:23:49;;;;;;;10.88;3.53;;;;;;;13.18;77.59;99603.31;5063498;28;20032;-64
2023/03/13 09:26:15;;;;;;;7.63;3.13;;;;;;;13.29;77.32;99601.25;5069690;28;20467;-64
2023/03/13 09:28:42;;;;;;;8.55;3.08;;;;;;;13.45;77.10;99602.66;5060799;28;20032;-66
2023/03/13 09:31:10;;;;;;;7.97;3.30;;;;;;;13.63;77.15;99589.81;5070400;28;20028;-64
2023/03/13 09:33:36;;;;;;;8.95;3.47;;;;;;;13.84;76.58;99580.00;5073369;28;20036;-65
2023/03/13 09:36:04;;;;;;;6.57;2.92;;;;;;;14.05;74.96;99568.44;5069014;28;20536;-63
2023/03/13 09:38:33;;;;;;;9.10;2.90;;;;;;;14.20;74.45;99568.16;5069107;28;20047;-65
2023/03/13 09:41:24;;;;;;;5.57;2.97;;;;;;;14.53;74.34;99570.88;5056710;28;20039;-63
2023/03/13 09:43:53;;;;;;;30.30;4.05;;;;;;;14.63;73.98;99549.16;5055732;28;20048;-65
2023/03/13 09:46:29;;;;;;;10.18;3.20;;;;;;;14.77;73.55;99560.31;5058140;28;20111;-64
2023/03/13 09:49:02;;;;;;;6.65;2.60;;;;;;;14.90;71.70;99553.88;5068116;28;20029;-67
2023/03/13 09:51:41;;;;;;;5.53;2.38;;;;;;;14.88;70.98;99552.53;5066365;28;20075;-66
2023/03/13 09:54:23;;;;;;;5.95;2.45;;;;;;;14.79;71.56;99548.84;5063932;28;20058;-66
2023/03/13 09:57:06;;;;;;;4.93;2.25;;;;;;;14.71;71.26;99556.00;5066616;28;20028;-66
2023/03/13 09:59:31;;;;;;;;;;;;;;;14.69;72.72;99558.25;5075644;28;20047;-67
2023/03/13 10:01:59;;;;;;;3.93;2.30;;;;;;;14.60;70.01;99549.78;5059185;28;20426;-66
2023/03/13 10:04:53;;;;;;;5.03;2.35;;;;;;;14.54;70.73;99539.03;5059717;28;20302;-67
2023/03/13 10:07:21;;;;;;;4.50;2.00;;;;;;;14.46;69.94;99543.34;5056315;28;20040;-65
2023/03/13 10:09:46;;;;;;;3.53;2.08;;;;;;;14.43;70.01;99532.81;5072356;28;20052;-66
2023/03/13 10:12:21;;;;;;;4.70;2.45;;;;;;;14.46;70.32;99548.94;5070349;28;20640;-65
2023/03/13 10:15:34;;;;;;;5.38;1.95;;;;;;;14.45;70.65;99545.31;5066287;28;20048;-66
2023/03/13 10:18:11;;;;;;;3.80;2.03;;;;;;;14.43;70.54;99538.41;5068053;28;20450;-66
2023/03/13 10:20:38;;;;;;;6.13;2.33;;;;;;;14.42;70.43;99529.22;5070895;28;20033;-66
2023/03/13 10:23:11;;;;;;;3.72;2.22;;;;;;;14.47;70.42;99536.66;5061771;28;20024;-66
2023/03/13 10:25:38;;;;;;;3.05;1.90;;;;;;;14.51;69.13;99536.88;5063815;28;20036;-65
2023/03/13 10:28:09;;;;;;;5.72;2.00;;;;;;;14.52;68.44;99544.13;5068038;28;20105;-59
2023/03/13 10:30:38;;;;;;;5.75;2.08;;;;;;;14.48;68.71;99530.75;5053361;28;20059;-64
2023/03/13 10:33:06;;;;;;;4.25;2.03;;;;;;;14.49;69.21;99517.63;5054802;28;20590;-65
2023/03/13 10:35:38;;;;;;;5.15;2.20;;;;;;;14.44;68.93;99509.34;5070638;28;20059;-67
2023/03/13 10:38:17;;;;;;;2.40;1.42;;;;;;;14.47;69.64;99512.34;5071301;28;20067;-68
2023/03/13 10:40:45;;;;;;;3.58;1.90;;;;;;;14.52;69.26;99499.44;5071597;28;20488;-69
2023/03/13 10:43:20;;;;;;;4.70;1.77;;;;;;;14.49;69.17;99512.03;5071283;28;20016;-70
2023/03/13 10:45:46;;;;;;;4.25;1.77;;;;;;;14.52;69.08;99527.34;5071992;28;20025;-69
2023/03/13 10:48:17;;;;;;;3.38;2.00;;;;;;;14.50;68.78;99516.50;5069283;28;20035;-69
2023/03/13 10:50:45;;;;;;;2.55;1.75;;;;;;;14.51;69.11;99504.19;5065112;28;20028;-69
2023/03/13 10:53:28;;;;;;;3.25;2.00;;;;;;;14.51;69.95;99506.16;5071577;28;20028;-67
2023/03/13 10:56:09;;;;;;;3.67;1.63;;;;;;;14.51;69.51;99520.94;5071709;28;20328;-68
2023/03/13 10:58:49;;;;;;;5.03;1.83;;;;;;;14.54;69.60;99498.00;5072179;28;20039;-68
2023/03/13 11:01:38;;;;;;;3.30;1.90;;;;;;;14.58;70.33;99504.63;5064574;28;20029;-68
2023/03/13 11:04:20;;;;;;;3.53;1.88;;;;;;;14.59;69.89;99514.63;5059943;28;20031;-68
2023/03/13 11:06:59;;;;;;;3.13;1.95;;;;;;;14.58;69.13;99498.16;5064366;28;20032;-68
2023/03/13 11:09:26;;;;;;;2.70;1.58;;;;;;;14.59;67.53;99506.25;5067316;28;20798;-68
2023/03/13 11:11:54;;;;;;;3.28;1.60;;;;;;;14.58;67.71;99487.00;5058111;28;20028;-68
2023/03/13 11:14:25;;;;;;;4.30;1.80;;;;;;;14.58;67.67;99481.41;5060845;28;20028;-68
2023/03/13 11:16:58;;;;;;;5.03;1.85;;;;;;;14.58;67.40;99496.22;5068437;28;20111;-68
2023/03/13 11:20:03;;;;;;;2.47;1.65;;;;;;;14.59;67.59;99463.53;5063658;28;20040;-65
2023/03/13 11:22:37;;;;;;;5.50;1.83;;;;;;;14.65;66.50;99493.81;5063798;28;20029;-67
2023/03/13 11:25:24;;;;;;;3.33;1.60;;;;;;;14.70;67.19;99473.34;5058704;28;20025;-66
2023/03/13 11:28:03;;;;;;;5.90;1.80;;;;;;;14.85;65.17;99472.97;5053780;28;20748;-66
2023/03/13 11:31:02;;;;;;;4.22;1.80;;;;;;;14.95;65.48;99485.88;5065867;28;20520;-65
2023/03/13 11:33:37;;;;;;;4.35;1.63;;;;;;;15.01;62.16;99467.84;5071177;28;20021;-65
2023/03/13 11:36:33;;;;;;;4.78;2.00;;;;;;;15.01;61.86;99478.19;5058575;28;20033;-67